createdAt,value
2022-09-18T00:00:14.731Z,99.99
2022-09-18T00:01:14.700Z,99.99
2022-09-18T00:02:14.742Z,99.99
2022-09-18T00:03:14.746Z,99.99
2022-09-18T00:04:14.671Z,99.99
2022-09-18T00:05:14.661Z,99.99
2022-09-18T00:06:14.637Z,99.99
2022-09-18T00:07:14.622Z,99.99
2022-09-18T00:08:14.612Z,99.99
2022-09-18T00:09:14.602Z,99.99
2022-09-18T00:10:14.594Z,99.99
2022-09-18T00:11:14.574Z,99.99
2022-09-18T00:12:15.511Z,99.99
2022-09-18T00:13:14.543Z,99.99
2022-09-18T00:14:14.536Z,99.99
2022-09-18T00:15:14.524Z,99.99
2022-09-18T00:16:14.582Z,99.99
2022-09-18T00:17:14.493Z,99.99
2022-09-18T00:18:14.483Z,99.99
2022-09-18T00:19:14.465Z,99.99
2022-09-18T00:20:14.461Z,99.99
2022-09-18T00:21:14.443Z,99.99
2022-09-18T00:22:14.439Z,99.99
2022-09-18T00:23:14.416Z,99.99
2022-09-18T00:24:14.416Z,99.99
2022-09-18T00:25:14.396Z,99.99
2022-09-18T00:26:14.377Z,99.99
2022-09-18T00:27:14.363Z,99.99
2022-09-18T00:28:14.357Z,99.99
2022-09-18T00:29:14.337Z,99.99
2022-09-18T00:30:14.337Z,99.99
2022-09-18T00:31:14.403Z,99.99
2022-09-18T00:32:14.293Z,99.99
2022-09-18T00:33:14.278Z,99.99
2022-09-18T00:34:14.269Z,99.99
2022-09-18T00:35:14.277Z,99.99
2022-09-18T00:36:14.246Z,99.99
2022-09-18T00:37:14.234Z,99.99
2022-09-18T00:38:14.215Z,99.99
2022-09-18T00:39:14.199Z,99.99
2022-09-18T00:40:14.295Z,99.99
2022-09-18T00:41:14.179Z,99.99
2022-09-18T00:42:14.172Z,99.99
2022-09-18T00:43:14.165Z,99.99
2022-09-18T00:44:14.148Z,99.99
2022-09-18T00:45:14.131Z,99.99
2022-09-18T00:46:14.139Z,99.99
2022-09-18T00:47:14.098Z,99.99
2022-09-18T00:48:14.081Z,99.99
2022-09-18T00:49:14.071Z,99.99
2022-09-18T00:50:14.082Z,99.99
2022-09-18T00:51:14.039Z,99.99
2022-09-18T00:52:14.032Z,99.99
2022-09-18T00:53:14.019Z,99.99
2022-09-18T00:54:14.003Z,99.99
2022-09-18T00:55:13.998Z,99.99
2022-09-18T00:56:13.981Z,99.99
2022-09-18T00:57:13.956Z,99.99
2022-09-18T00:58:13.950Z,99.99
2022-09-18T00:59:13.935Z,99.99
2022-09-18T01:00:13.931Z,99.99
2022-09-18T01:01:14.006Z,99.99
2022-09-18T01:02:13.990Z,99.99
2022-09-18T01:03:13.875Z,99.99
2022-09-18T01:04:13.873Z,99.99
2022-09-18T01:05:13.855Z,99.99
2022-09-18T01:06:13.850Z,99.99
2022-09-18T01:07:13.835Z,99.99
2022-09-18T01:08:14.757Z,99.99
2022-09-18T01:09:25.175Z,99.99
2022-09-18T01:10:14.792Z,99.99
2022-09-18T01:11:13.777Z,99.99
2022-09-18T01:12:13.756Z,99.99
2022-09-18T01:13:13.737Z,99.99
2022-09-18T01:14:13.735Z,99.99
2022-09-18T01:15:13.729Z,99.99
2022-09-18T01:16:13.770Z,99.99
2022-09-18T01:17:13.698Z,99.99
2022-09-18T01:18:13.674Z,99.99
2022-09-18T01:19:13.676Z,99.99
2022-09-18T01:20:13.648Z,99.99
2022-09-18T01:21:13.639Z,99.99
2022-09-18T01:22:13.620Z,99.99
2022-09-18T01:23:14.560Z,99.99
2022-09-18T01:24:13.609Z,99.99
2022-09-18T01:25:13.591Z,99.99
2022-09-18T01:26:13.576Z,99.99
2022-09-18T01:27:13.617Z,99.99
2022-09-18T01:28:13.551Z,99.99
2022-09-18T01:29:13.541Z,99.99
2022-09-18T01:30:13.522Z,99.99
2022-09-18T01:31:13.604Z,99.99
2022-09-18T01:32:34.500Z,99.99
2022-09-18T01:33:13.478Z,99.99
2022-09-18T01:34:13.477Z,99.99
2022-09-18T01:35:36.702Z,99.99
2022-09-18T01:36:14.451Z,99.99
2022-09-18T01:37:13.434Z,99.99
2022-09-18T01:38:14.391Z,99.99
2022-09-18T01:39:13.413Z,99.99
2022-09-18T01:40:13.473Z,99.99
2022-09-18T01:41:13.379Z,99.99
2022-09-18T01:42:13.364Z,99.99
2022-09-18T01:43:13.354Z,99.99
2022-09-18T01:44:13.345Z,99.99
2022-09-18T01:45:13.325Z,99.99
2022-09-18T01:46:13.389Z,99.99
2022-09-18T01:47:13.295Z,99.99
2022-09-18T01:48:13.305Z,99.99
2022-09-18T01:49:13.273Z,99.99
2022-09-18T01:50:13.266Z,99.99
2022-09-18T01:51:13.246Z,99.99
2022-09-18T01:52:13.233Z,99.99
2022-09-18T01:53:13.225Z,99.99
2022-09-18T01:54:13.207Z,99.99
2022-09-18T01:55:13.198Z,99.99
2022-09-18T01:56:13.188Z,99.99
2022-09-18T01:57:13.175Z,99.99
2022-09-18T01:58:13.165Z,99.99
2022-09-18T01:59:13.138Z,99.99
2022-09-18T02:00:13.129Z,99.99
2022-09-18T02:01:13.270Z,99.99
2022-09-18T02:02:13.242Z,99.99
2022-09-18T02:03:13.089Z,99.99
2022-09-18T02:04:13.078Z,99.99
2022-09-18T02:05:13.051Z,99.99
2022-09-18T02:06:13.056Z,99.99
2022-09-18T02:07:13.020Z,99.99
2022-09-18T02:08:13.049Z,99.99
2022-09-18T02:09:12.998Z,99.99
2022-09-18T02:10:13.000Z,99.99
2022-09-18T02:11:12.981Z,99.99
2022-09-18T02:12:12.967Z,99.99
2022-09-18T02:13:12.952Z,99.99
2022-09-18T02:14:12.954Z,99.99
2022-09-18T02:15:12.922Z,99.99
2022-09-18T02:16:13.922Z,99.99
2022-09-18T02:17:12.893Z,99.99
2022-09-18T02:18:12.893Z,99.99
2022-09-18T02:19:12.870Z,99.49
2022-09-18T02:20:12.854Z,99.59
2022-09-18T02:21:12.844Z,98.46
2022-09-18T02:22:12.842Z,98.93
2022-09-18T02:23:12.815Z,98.62
2022-09-18T02:24:12.804Z,98.11
2022-09-18T02:25:12.795Z,98.52
2022-09-18T02:26:12.780Z,98.72
2022-09-18T02:27:12.765Z,98.62
2022-09-18T02:28:12.753Z,99.03
2022-09-18T02:29:12.735Z,99.03
2022-09-18T02:30:12.724Z,98.32
2022-09-18T02:31:12.745Z,98.52
2022-09-18T02:32:12.706Z,98.32
2022-09-18T02:33:12.677Z,98.62
2022-09-18T02:34:12.671Z,99.03
2022-09-18T02:35:12.647Z,99.24
2022-09-18T02:36:12.644Z,99.34
2022-09-18T02:37:12.627Z,99.44
2022-09-18T02:38:12.614Z,99.59
2022-09-18T02:39:12.595Z,99.99
2022-09-18T02:40:12.647Z,99.99
2022-09-18T02:41:12.570Z,99.99
2022-09-18T02:42:12.568Z,99.59
2022-09-18T02:43:12.550Z,98.77
2022-09-18T02:44:12.536Z,98.52
2022-09-18T02:45:12.529Z,98.32
2022-09-18T02:46:12.609Z,97.80
2022-09-18T02:47:12.500Z,98.00
2022-09-18T02:48:12.480Z,98.52
2022-09-18T02:49:12.460Z,98.52
2022-09-18T02:50:12.456Z,98.67
2022-09-18T02:51:12.445Z,98.21
2022-09-18T02:52:12.441Z,98.72
2022-09-18T02:53:12.411Z,98.57
2022-09-18T02:54:12.402Z,98.36
2022-09-18T02:55:12.389Z,98.11
2022-09-18T02:56:12.372Z,97.95
2022-09-18T02:57:12.372Z,97.49
2022-09-18T02:58:12.349Z,98.21
2022-09-18T02:59:12.335Z,98.32
2022-09-18T03:00:12.325Z,97.39
2022-09-18T03:01:12.403Z,97.39
2022-09-18T03:02:12.438Z,98.11
2022-09-18T03:03:12.283Z,97.95
2022-09-18T03:04:12.274Z,97.64
2022-09-18T03:05:13.214Z,98.11
2022-09-18T03:06:12.244Z,96.67
2022-09-18T03:07:12.243Z,96.67
2022-09-18T03:08:12.224Z,96.78
2022-09-18T03:09:12.204Z,96.57
2022-09-18T03:10:12.195Z,96.88
2022-09-18T03:11:12.183Z,96.88
2022-09-18T03:12:12.174Z,96.98
2022-09-18T03:13:12.155Z,96.88
2022-09-18T03:14:12.138Z,95.95
2022-09-18T03:15:12.126Z,96.37
2022-09-18T03:16:12.154Z,96.57
2022-09-18T03:17:12.107Z,96.37
2022-09-18T03:18:12.087Z,97.08
2022-09-18T03:19:12.078Z,96.78
2022-09-18T03:20:12.067Z,96.06
2022-09-18T03:21:12.047Z,96.06
2022-09-18T03:22:12.996Z,95.24
2022-09-18T03:23:12.970Z,96.47
2022-09-18T03:24:12.965Z,96.98
2022-09-18T03:25:11.999Z,96.06
2022-09-18T03:26:11.985Z,96.16
2022-09-18T03:27:11.979Z,96.37
2022-09-18T03:28:11.956Z,96.16
2022-09-18T03:29:11.939Z,96.78
2022-09-18T03:30:11.939Z,96.88
2022-09-18T03:31:11.954Z,96.67
2022-09-18T03:32:11.910Z,97.39
2022-09-18T03:33:11.887Z,96.98
2022-09-18T03:34:11.880Z,97.54
2022-09-18T03:35:11.860Z,96.26
2022-09-18T03:36:11.852Z,96.47
2022-09-18T03:37:11.852Z,96.37
2022-09-18T03:38:11.821Z,96.92
2022-09-18T03:39:11.811Z,98.05
2022-09-18T03:40:11.868Z,98.77
2022-09-18T03:41:11.779Z,98.97
2022-09-18T03:42:11.779Z,99.49
2022-09-18T03:43:11.752Z,99.99
2022-09-18T03:44:11.752Z,99.99
2022-09-18T03:45:11.736Z,99.99
2022-09-18T03:46:11.774Z,99.99
2022-09-18T03:47:11.713Z,99.99
2022-09-18T03:48:11.694Z,99.99
2022-09-18T03:49:11.674Z,99.99
2022-09-18T03:50:11.664Z,99.99
2022-09-18T03:51:11.655Z,99.99
2022-09-18T03:52:11.652Z,99.99
2022-09-18T03:53:11.625Z,99.99
2022-09-18T03:54:11.612Z,99.99
2022-09-18T03:55:11.597Z,99.99
2022-09-18T03:56:11.605Z,99.99
2022-09-18T03:57:11.577Z,99.99
2022-09-18T03:58:11.567Z,99.99
2022-09-18T03:59:11.546Z,99.99
2022-09-18T04:00:11.535Z,99.99
2022-09-18T04:01:11.529Z,99.99
2022-09-18T04:02:11.542Z,99.99
2022-09-18T04:03:11.542Z,99.99
2022-09-18T04:04:11.490Z,99.99
2022-09-18T04:05:11.492Z,99.74
2022-09-18T04:06:11.464Z,99.22
2022-09-18T04:07:11.439Z,99.84
2022-09-18T04:08:11.438Z,99.43
2022-09-18T04:09:11.419Z,99.84
2022-09-18T04:10:11.399Z,99.99
2022-09-18T04:11:11.389Z,99.99
2022-09-18T04:12:11.381Z,99.99
2022-09-18T04:13:11.358Z,99.54
2022-09-18T04:14:11.356Z,99.22
2022-09-18T04:15:11.338Z,98.30
2022-09-18T04:16:11.418Z,99.33
2022-09-18T04:17:11.307Z,99.84
2022-09-18T04:18:11.310Z,99.84
2022-09-18T04:19:11.289Z,99.99
2022-09-18T04:20:11.282Z,99.84
2022-09-18T04:21:12.238Z,99.95
2022-09-18T04:22:11.251Z,99.99
2022-09-18T04:23:11.233Z,99.63
2022-09-18T04:24:11.222Z,99.33
2022-09-18T04:25:11.208Z,98.92
2022-09-18T04:26:11.199Z,98.82
2022-09-18T04:27:11.173Z,98.30
2022-09-18T04:28:11.163Z,98.71
2022-09-18T04:29:11.154Z,98.92
2022-09-18T04:30:11.153Z,99.33
2022-09-18T04:31:11.187Z,98.71
2022-09-18T04:32:11.114Z,98.92
2022-09-18T04:33:11.094Z,98.71
2022-09-18T04:34:11.106Z,98.82
2022-09-18T04:35:11.081Z,99.22
2022-09-18T04:36:11.065Z,99.22
2022-09-18T04:37:11.055Z,98.92
2022-09-18T04:38:11.039Z,98.30
2022-09-18T04:39:11.024Z,98.71
2022-09-18T04:40:11.094Z,98.30
2022-09-18T04:41:11.016Z,98.41
2022-09-18T04:42:10.987Z,98.41
2022-09-18T04:43:10.966Z,98.61
2022-09-18T04:44:10.957Z,98.51
2022-09-18T04:45:10.947Z,98.51
2022-09-18T04:46:11.007Z,97.48
2022-09-18T04:47:10.918Z,97.38
2022-09-18T04:48:10.908Z,98.41
2022-09-18T04:49:10.887Z,98.61
2022-09-18T04:50:10.894Z,98.30
2022-09-18T04:51:10.855Z,98.30
2022-09-18T04:52:10.848Z,97.89
2022-09-18T04:53:10.838Z,97.89
2022-09-18T04:54:10.829Z,98.30
2022-09-18T04:55:10.818Z,97.69
2022-09-18T04:56:10.799Z,98.41
2022-09-18T04:57:10.780Z,98.71
2022-09-18T04:58:10.777Z,98.82
2022-09-18T04:59:10.754Z,99.22
2022-09-18T05:00:10.757Z,98.61
2022-09-18T05:01:10.862Z,98.71
2022-09-18T05:02:10.741Z,98.30
2022-09-18T05:03:10.697Z,97.44
2022-09-18T05:04:10.689Z,97.85
2022-09-18T05:05:10.692Z,97.85
2022-09-18T05:06:10.665Z,98.36
2022-09-18T05:07:10.653Z,98.36
2022-09-18T05:08:10.650Z,97.69
2022-09-18T05:09:10.636Z,98.05
2022-09-18T05:10:10.625Z,97.74
2022-09-18T05:11:10.593Z,97.85
2022-09-18T05:12:10.591Z,98.25
2022-09-18T05:13:10.572Z,97.44
2022-09-18T05:14:10.560Z,98.16
2022-09-18T05:15:10.553Z,98.05
2022-09-18T05:16:10.591Z,98.46
2022-09-18T05:17:10.513Z,98.36
2022-09-18T05:18:11.698Z,97.33
2022-09-18T05:19:11.445Z,97.33
2022-09-18T05:20:10.492Z,97.64
2022-09-18T05:21:10.475Z,96.92
2022-09-18T05:22:10.451Z,96.92
2022-09-18T05:23:10.436Z,96.62
2022-09-18T05:24:11.395Z,97.54
2022-09-18T05:25:10.437Z,97.29
2022-09-18T05:26:10.403Z,97.91
2022-09-18T05:27:10.394Z,98.00
2022-09-18T05:28:10.371Z,98.11
2022-09-18T05:29:10.364Z,97.80
2022-09-18T05:30:10.357Z,96.78
2022-09-18T05:31:10.411Z,96.26
2022-09-18T05:32:10.314Z,96.78
2022-09-18T05:33:10.304Z,97.19
2022-09-18T05:34:10.294Z,97.19
2022-09-18T05:35:10.288Z,97.08
2022-09-18T05:36:10.287Z,97.08
2022-09-18T05:37:10.258Z,97.49
2022-09-18T05:38:10.238Z,97.08
2022-09-18T05:39:14.203Z,97.08
2022-09-18T05:40:11.267Z,97.08
2022-09-18T05:41:10.220Z,97.49
2022-09-18T05:42:11.135Z,97.39
2022-09-18T05:43:10.188Z,95.24
2022-09-18T05:44:10.170Z,96.01
2022-09-18T05:45:10.161Z,96.01
2022-09-18T05:46:10.192Z,95.81
2022-09-18T05:47:10.128Z,96.42
2022-09-18T05:48:10.114Z,96.94
2022-09-18T05:49:10.096Z,96.01
2022-09-18T05:50:10.089Z,95.91
2022-09-18T05:51:10.083Z,95.70
2022-09-18T05:52:10.052Z,95.61
2022-09-18T05:53:10.042Z,95.81
2022-09-18T05:54:10.039Z,95.81
2022-09-18T05:55:10.030Z,95.40
2022-09-18T05:56:10.005Z,94.99
2022-09-18T05:57:09.994Z,95.76
2022-09-18T05:58:09.986Z,95.87
2022-09-18T05:59:09.975Z,96.22
2022-09-18T06:00:09.964Z,96.32
2022-09-18T06:01:09.944Z,95.50
2022-09-18T06:02:09.987Z,95.15
2022-09-18T06:03:10.028Z,94.95
2022-09-18T06:04:09.895Z,95.66
2022-09-18T06:05:09.906Z,96.07
2022-09-18T06:06:09.871Z,95.66
2022-09-18T06:07:09.875Z,95.46
2022-09-18T06:08:09.856Z,95.66
2022-09-18T06:09:09.839Z,93.41
2022-09-18T06:10:09.837Z,94.39
2022-09-18T06:11:09.828Z,94.29
2022-09-18T06:12:09.793Z,94.08
2022-09-18T06:13:09.787Z,94.70
2022-09-18T06:14:09.767Z,93.88
2022-09-18T06:15:09.767Z,93.67
2022-09-18T06:16:09.784Z,93.47
2022-09-18T06:17:09.736Z,94.29
2022-09-18T06:18:09.738Z,94.90
2022-09-18T06:19:09.711Z,94.08
2022-09-18T06:20:09.696Z,93.98
2022-09-18T06:21:09.679Z,94.90
2022-09-18T06:22:09.669Z,94.49
2022-09-18T06:23:09.650Z,93.77
2022-09-18T06:24:09.645Z,93.57
2022-09-18T06:25:09.637Z,93.43
2022-09-18T06:26:14.576Z,93.93
2022-09-18T06:27:10.600Z,94.04
2022-09-18T06:28:09.588Z,93.43
2022-09-18T06:29:09.579Z,93.93
2022-09-18T06:30:09.572Z,92.71
2022-09-18T06:31:09.581Z,93.01
2022-09-18T06:32:09.532Z,93.43
2022-09-18T06:33:09.532Z,92.91
2022-09-18T06:34:09.515Z,91.89
2022-09-18T06:35:09.502Z,92.30
2022-09-18T06:36:09.479Z,92.30
2022-09-18T06:37:09.472Z,92.81
2022-09-18T06:38:09.453Z,92.60
2022-09-18T06:39:09.451Z,93.26
2022-09-18T06:40:09.485Z,93.47
2022-09-18T06:41:09.455Z,92.96
2022-09-18T06:42:09.401Z,92.55
2022-09-18T06:43:10.349Z,92.75
2022-09-18T06:44:09.375Z,93.57
2022-09-18T06:45:09.382Z,93.82
2022-09-18T06:46:09.345Z,93.92
2022-09-18T06:47:09.342Z,93.62
2022-09-18T06:48:09.325Z,92.96
2022-09-18T06:49:09.315Z,93.57
2022-09-18T06:50:09.306Z,94.18
2022-09-18T06:51:09.291Z,93.51
2022-09-18T06:52:09.276Z,93.71
2022-09-18T06:53:12.645Z,93.16
2022-09-18T06:54:09.247Z,93.26
2022-09-18T06:55:09.264Z,93.47
2022-09-18T06:56:09.217Z,92.85
2022-09-18T06:57:09.216Z,93.57
2022-09-18T06:58:09.194Z,93.37
2022-09-18T06:59:09.188Z,93.98
2022-09-18T07:00:09.177Z,93.37
2022-09-18T07:01:09.219Z,92.24
2022-09-18T07:02:09.206Z,92.96
2022-09-18T07:03:09.138Z,92.75
2022-09-18T07:04:09.120Z,92.85
2022-09-18T07:05:09.108Z,92.91
2022-09-18T07:06:09.100Z,92.71
2022-09-18T07:07:09.082Z,92.19
2022-09-18T07:08:09.059Z,91.89
2022-09-18T07:09:09.060Z,91.27
2022-09-18T07:10:09.319Z,91.69
2022-09-18T07:11:09.026Z,91.99
2022-09-18T07:12:09.011Z,92.19
2022-09-18T07:13:08.997Z,92.81
2022-09-18T07:14:08.991Z,91.78
2022-09-18T07:15:08.976Z,91.83
2022-09-18T07:16:09.023Z,92.65
2022-09-18T07:17:08.954Z,92.44
2022-09-18T07:18:09.979Z,92.96
2022-09-18T07:19:08.932Z,92.55
2022-09-18T07:20:08.903Z,92.40
2022-09-18T07:21:08.895Z,92.81
2022-09-18T07:22:09.831Z,93.01
2022-09-18T07:23:08.865Z,92.50
2022-09-18T07:24:08.866Z,92.50
2022-09-18T07:25:08.841Z,91.99
2022-09-18T07:26:08.835Z,91.99
2022-09-18T07:27:08.822Z,92.91
2022-09-18T07:28:08.803Z,92.87
2022-09-18T07:29:10.253Z,92.46
2022-09-18T07:30:08.775Z,91.44
2022-09-18T07:31:08.806Z,91.74
2022-09-18T07:32:08.746Z,91.39
2022-09-18T07:33:08.747Z,91.70
2022-09-18T07:34:08.727Z,90.82
2022-09-18T07:35:08.707Z,90.47
2022-09-18T07:36:08.708Z,90.27
2022-09-18T07:37:08.684Z,91.50
2022-09-18T07:38:08.668Z,91.09
2022-09-18T07:39:08.674Z,90.68
2022-09-18T07:40:08.703Z,90.27
2022-09-18T07:41:08.636Z,90.68
2022-09-18T07:42:09.141Z,91.15
2022-09-18T07:43:08.612Z,90.84
2022-09-18T07:44:08.600Z,90.94
2022-09-18T07:45:08.589Z,89.92
2022-09-18T07:46:08.626Z,89.82
2022-09-18T07:47:08.557Z,89.26
2022-09-18T07:48:08.536Z,89.98
2022-09-18T07:49:08.565Z,88.59
2022-09-18T07:50:08.510Z,88.24
2022-09-18T07:51:08.503Z,87.73
2022-09-18T07:52:08.487Z,87.94
2022-09-18T07:53:08.492Z,87.32
2022-09-18T07:54:08.461Z,88.31
2022-09-18T07:55:08.448Z,87.90
2022-09-18T07:56:08.433Z,87.53
2022-09-18T07:57:08.522Z,87.79
2022-09-18T07:58:08.415Z,87.18
2022-09-18T07:59:08.413Z,87.18
2022-09-18T08:00:08.380Z,87.85
2022-09-18T08:01:08.369Z,87.76
2022-09-18T08:02:08.431Z,87.45
2022-09-18T08:03:08.464Z,86.73
2022-09-18T08:04:09.112Z,84.75
2022-09-18T08:05:08.332Z,83.84
2022-09-18T08:06:08.306Z,85.33
2022-09-18T08:07:08.294Z,85.02
2022-09-18T08:08:08.296Z,84.51
2022-09-18T08:09:08.284Z,84.41
2022-09-18T08:10:08.245Z,85.84
2022-09-18T08:11:08.247Z,83.18
2022-09-18T08:12:08.227Z,83.59
2022-09-18T08:13:08.215Z,83.25
2022-09-18T08:14:08.272Z,84.58
2022-09-18T08:15:08.193Z,84.98
2022-09-18T08:16:08.212Z,83.76
2022-09-18T08:17:08.165Z,81.66
2022-09-18T08:18:08.155Z,82.98
2022-09-18T08:19:08.138Z,82.94
2022-09-18T08:20:08.129Z,82.13
2022-09-18T08:21:10.594Z,81.72
2022-09-18T08:22:08.088Z,82.54
2022-09-18T08:23:08.094Z,82.64
2022-09-18T08:24:08.069Z,82.23
2022-09-18T08:25:08.070Z,82.94
2022-09-18T08:26:08.048Z,83.35
2022-09-18T08:27:08.031Z,82.47
2022-09-18T08:28:08.031Z,82.98
2022-09-18T08:29:08.011Z,82.33
2022-09-18T08:30:07.993Z,82.03
2022-09-18T08:31:08.070Z,83.04
2022-09-18T08:32:09.997Z,81.01
2022-09-18T08:33:07.962Z,82.13
2022-09-18T08:34:07.942Z,81.38
2022-09-18T08:35:07.927Z,82.29
2022-09-18T08:36:07.913Z,82.87
2022-09-18T08:37:07.902Z,81.81
2022-09-18T08:38:07.893Z,79.02
2022-09-18T08:39:07.875Z,77.77
2022-09-18T08:40:07.922Z,77.67
2022-09-18T08:41:07.844Z,77.36
2022-09-18T08:42:07.848Z,77.63
2022-09-18T08:43:07.831Z,77.43
2022-09-18T08:44:07.804Z,77.39
2022-09-18T08:45:07.792Z,77.36
2022-09-18T08:46:07.772Z,76.34
2022-09-18T08:47:07.776Z,77.36
2022-09-18T08:48:07.756Z,75.63
2022-09-18T08:49:07.746Z,74.62
2022-09-18T08:50:07.728Z,76.44
2022-09-18T08:51:07.710Z,77.29
2022-09-18T08:52:07.697Z,76.21
2022-09-18T08:53:07.699Z,78.14
2022-09-18T08:54:07.676Z,78.38
2022-09-18T08:55:07.658Z,78.78
2022-09-18T08:56:07.645Z,78.17
2022-09-18T08:57:09.324Z,78.44
2022-09-18T08:58:07.626Z,77.87
2022-09-18T08:59:07.610Z,77.63
2022-09-18T09:00:07.590Z,79.36
2022-09-18T09:01:07.643Z,80.27
2022-09-18T09:02:07.627Z,77.16
2022-09-18T09:03:07.568Z,79.19
2022-09-18T09:04:07.551Z,79.90
2022-09-18T09:05:07.533Z,79.50
2022-09-18T09:06:07.518Z,79.29
2022-09-18T09:07:07.512Z,78.11
2022-09-18T09:08:07.494Z,79.74
2022-09-18T09:09:10.999Z,80.15
2022-09-18T09:10:08.479Z,78.99
2022-09-18T09:11:08.409Z,77.47
2022-09-18T09:12:07.445Z,76.04
2022-09-18T09:13:07.424Z,77.53
2022-09-18T09:14:07.414Z,77.63
2022-09-18T09:15:07.400Z,77.49
2022-09-18T09:16:07.442Z,76.54
2022-09-18T09:17:07.393Z,74.01
2022-09-18T09:18:07.385Z,70.96
2022-09-18T09:19:07.350Z,76.24
2022-09-18T09:20:07.336Z,75.83
2022-09-18T09:21:11.631Z,76.20
2022-09-18T09:22:07.327Z,73.09
2022-09-18T09:23:07.298Z,75.05
2022-09-18T09:24:07.288Z,76.10
2022-09-18T09:25:07.417Z,78.24
2022-09-18T09:26:07.258Z,80.21
2022-09-18T09:27:07.258Z,79.13
2022-09-18T09:28:07.231Z,82.89
2022-09-18T09:29:07.234Z,81.60
2022-09-18T09:30:07.209Z,80.18
2022-09-18T09:31:07.228Z,80.42
2022-09-18T09:32:07.189Z,79.71
2022-09-18T09:33:07.170Z,79.41
2022-09-18T09:34:07.149Z,80.22
2022-09-18T09:35:07.151Z,80.22
2022-09-18T09:36:07.133Z,81.44
2022-09-18T09:37:07.123Z,81.54
2022-09-18T09:38:07.101Z,79.71
2022-09-18T09:39:07.094Z,81.65
2022-09-18T09:40:07.139Z,80.22
2022-09-18T09:41:07.062Z,78.89
2022-09-18T09:42:07.053Z,80.18
2022-09-18T09:43:07.127Z,80.55
2022-09-18T09:44:07.022Z,81.02
2022-09-18T09:45:07.014Z,80.31
2022-09-18T09:46:07.004Z,79.97
2022-09-18T09:47:07.060Z,78.24
2022-09-18T09:48:06.978Z,76.78
2022-09-18T09:49:06.954Z,77.97
2022-09-18T09:50:06.945Z,78.33
2022-09-18T09:51:06.925Z,78.70
2022-09-18T09:52:09.273Z,76.33
2022-09-18T09:53:06.906Z,74.81
2022-09-18T09:54:06.899Z,72.17
2022-09-18T09:55:06.880Z,73.09
2022-09-18T09:56:06.872Z,74.65
2022-09-18T09:57:06.869Z,73.77
2022-09-18T09:58:06.845Z,75.16
2022-09-18T09:59:08.704Z,75.80
2022-09-18T10:00:07.776Z,77.36
2022-09-18T10:01:06.901Z,78.24
2022-09-18T10:02:06.859Z,76.41
2022-09-18T10:03:06.782Z,78.30
2022-09-18T10:04:06.771Z,75.05
2022-09-18T10:05:06.750Z,74.62
2022-09-18T10:06:06.749Z,75.90
2022-09-18T10:07:06.771Z,76.81
2022-09-18T10:08:06.717Z,77.01
2022-09-18T10:09:06.703Z,73.97
2022-09-18T10:10:06.691Z,76.61
2022-09-18T10:11:06.689Z,76.91
2022-09-18T10:12:06.713Z,74.65
2022-09-18T10:13:06.653Z,74.51
2022-09-18T10:14:06.641Z,74.81
2022-09-18T10:15:06.627Z,75.05
2022-09-18T10:16:06.711Z,74.51
2022-09-18T10:17:06.593Z,75.22
2022-09-18T10:18:06.590Z,74.48
2022-09-18T10:19:06.563Z,72.61
2022-09-18T10:20:06.554Z,73.66
2022-09-18T10:21:06.548Z,72.28
2022-09-18T10:22:06.616Z,73.43
2022-09-18T10:23:07.317Z,74.10
2022-09-18T10:24:06.505Z,73.90
2022-09-18T10:25:06.486Z,73.86
2022-09-18T10:26:06.492Z,73.16
2022-09-18T10:27:06.468Z,72.75
2022-09-18T10:28:06.458Z,74.17
2022-09-18T10:29:06.437Z,73.05
2022-09-18T10:30:06.424Z,71.84
2022-09-18T10:31:07.457Z,75.38
2022-09-18T10:32:06.465Z,71.84
2022-09-18T10:33:06.387Z,73.16
2022-09-18T10:34:06.379Z,72.75
2022-09-18T10:35:06.357Z,74.13
2022-09-18T10:36:06.355Z,71.03
2022-09-18T10:37:06.332Z,73.46
2022-09-18T10:38:06.319Z,73.86
2022-09-18T10:39:06.312Z,72.58
2022-09-18T10:40:06.327Z,72.48
2022-09-18T10:41:06.281Z,73.33
2022-09-18T10:42:06.356Z,72.25
2022-09-18T10:43:06.252Z,73.77
2022-09-18T10:44:06.238Z,73.87
2022-09-18T10:45:06.223Z,76.87
2022-09-18T10:46:07.178Z,74.85
2022-09-18T10:47:06.225Z,74.74
2022-09-18T10:48:06.194Z,73.83
2022-09-18T10:49:06.164Z,71.70
2022-09-18T10:50:06.188Z,74.54
2022-09-18T10:51:06.143Z,72.55
2022-09-18T10:52:06.184Z,72.28
2022-09-18T10:53:06.115Z,74.01
2022-09-18T10:54:06.104Z,74.01
2022-09-18T10:55:06.097Z,73.90
2022-09-18T10:56:06.078Z,74.04
2022-09-18T10:57:06.071Z,71.40
2022-09-18T10:58:06.054Z,71.06
2022-09-18T10:59:06.095Z,71.23
2022-09-18T11:00:06.033Z,71.44
2022-09-18T11:01:06.136Z,70.89
2022-09-18T11:02:06.091Z,73.22
2022-09-18T11:03:05.989Z,70.83
2022-09-18T11:04:05.976Z,71.44
2022-09-18T11:05:05.961Z,69.81
2022-09-18T11:06:05.949Z,70.08
2022-09-18T11:07:05.930Z,71.44
2022-09-18T11:08:05.919Z,74.21
2022-09-18T11:09:05.901Z,75.26
2022-09-18T11:10:05.909Z,78.55
2022-09-18T11:11:05.882Z,81.23
2022-09-18T11:12:05.884Z,84.66
2022-09-18T11:13:05.872Z,88.42
2022-09-18T11:14:05.844Z,88.53
2022-09-18T11:15:05.832Z,88.73
2022-09-18T11:16:05.881Z,90.50
2022-09-18T11:17:06.743Z,91.01
2022-09-18T11:18:05.783Z,90.81
2022-09-18T11:19:07.537Z,90.91
2022-09-18T11:20:05.774Z,91.11
2022-09-18T11:21:05.746Z,90.85
2022-09-18T11:22:05.734Z,91.97
2022-09-18T11:23:05.714Z,91.83
2022-09-18T11:24:05.704Z,91.42
2022-09-18T11:25:05.697Z,91.38
2022-09-18T11:26:05.696Z,91.88
2022-09-18T11:27:05.675Z,91.48
2022-09-18T11:28:05.726Z,91.23
2022-09-18T11:29:05.636Z,89.70
2022-09-18T11:30:05.639Z,89.81
2022-09-18T11:31:05.663Z,89.00
2022-09-18T11:32:05.706Z,86.15
2022-09-18T11:33:05.578Z,88.34
2022-09-18T11:34:06.528Z,87.69
2022-09-18T11:35:05.569Z,87.59
2022-09-18T11:36:05.548Z,88.26
2022-09-18T11:37:06.329Z,87.20
2022-09-18T11:38:05.519Z,87.92
2022-09-18T11:39:05.501Z,85.84
2022-09-18T11:40:05.560Z,84.46
2022-09-18T11:41:05.472Z,86.49
2022-09-18T11:42:05.471Z,83.65
2022-09-18T11:43:05.469Z,86.49
2022-09-18T11:44:05.437Z,86.65
2022-09-18T11:45:05.430Z,86.86
2022-09-18T11:46:05.422Z,85.33
2022-09-18T11:47:05.477Z,85.13
2022-09-18T11:48:05.388Z,85.44
2022-09-18T11:49:05.382Z,84.93
2022-09-18T11:50:05.408Z,84.32
2022-09-18T11:51:05.353Z,83.20
2022-09-18T11:52:05.341Z,83.51
2022-09-18T11:53:05.324Z,83.00
2022-09-18T11:54:05.312Z,82.25
2022-09-18T11:55:05.301Z,83.57
2022-09-18T11:56:05.288Z,81.40
2022-09-18T11:57:05.271Z,81.71
2022-09-18T11:58:05.261Z,84.20
2022-09-18T11:59:05.245Z,80.98
2022-09-18T12:00:05.238Z,80.84
2022-09-18T12:01:05.396Z,79.08
2022-09-18T12:02:05.266Z,79.29
2022-09-18T12:03:05.277Z,79.39
2022-09-18T12:04:05.177Z,78.17
2022-09-18T12:05:05.168Z,77.75
2022-09-18T12:06:05.148Z,78.59
2022-09-18T12:07:05.139Z,77.01
2022-09-18T12:08:03.766Z,79.47
2022-09-18T12:09:03.751Z,75.82
2022-09-18T12:10:03.752Z,77.95
2022-09-18T12:11:03.721Z,75.12
2022-09-18T12:12:03.718Z,77.14
2022-09-18T12:13:03.776Z,77.41
2022-09-18T12:14:03.689Z,77.68
2022-09-18T12:15:03.669Z,73.39
2022-09-18T12:16:03.721Z,75.79
2022-09-18T12:17:03.642Z,77.06
2022-09-18T12:18:03.624Z,74.80
2022-09-18T12:19:03.606Z,73.90
2022-09-18T12:20:03.606Z,72.55
2022-09-18T12:21:03.596Z,74.20
2022-09-18T12:22:03.573Z,74.24
2022-09-18T12:23:03.558Z,73.66
2022-09-18T12:24:03.554Z,76.20
2022-09-18T12:25:03.534Z,77.68
2022-09-18T12:26:03.514Z,74.30
2022-09-18T12:27:03.509Z,73.39
2022-09-18T12:28:03.492Z,72.58
2022-09-18T12:29:03.472Z,72.48
2022-09-18T12:30:03.603Z,72.78
2022-09-18T12:31:03.519Z,74.81
2022-09-18T12:32:03.431Z,73.19
2022-09-18T12:33:03.410Z,72.58
2022-09-18T12:34:03.401Z,71.88
2022-09-18T12:35:04.339Z,75.42
2022-09-18T12:36:04.330Z,75.96
2022-09-18T12:37:03.358Z,76.06
2022-09-18T12:38:03.358Z,75.89
2022-09-18T12:39:04.020Z,78.02
2022-09-18T12:40:04.195Z,76.80
2022-09-18T12:41:03.978Z,76.94
2022-09-18T12:42:03.967Z,76.78
2022-09-18T12:43:03.997Z,78.33
2022-09-18T12:44:03.947Z,79.65
2022-09-18T12:45:03.916Z,77.36
2022-09-18T12:46:03.964Z,81.11
2022-09-18T12:47:03.895Z,80.54
2022-09-18T12:48:03.886Z,81.39
2022-09-18T12:49:03.874Z,82.24
2022-09-18T12:50:03.854Z,80.31
2022-09-18T12:51:03.834Z,81.37
2022-09-18T12:52:04.781Z,83.81